sensor_id;sensor_type;location;lat;lon;timestamp;pressure;altitude;pressure_sealevel;temperature;humidity
33795;BME280;51430;52.242;21.118;2023-05-24T00:02:13;99948.32;;;19.13;58.74
33795;BME280;51430;52.242;21.118;2023-05-24T00:04:40;99944.81;;;19.10;58.93
33795;BME280;51430;52.242;21.118;2023-05-24T00:07:07;99942.63;;;19.05;58.10
33795;BME280;51430;52.242;21.118;2023-05-24T00:09:34;99942.17;;;18.98;57.76
33795;BME280;51430;52.242;21.118;2023-05-24T00:12:00;99940.73;;;18.97;58.80
33795;BME280;51430;52.242;21.118;2023-05-24T00:14:27;99940.20;;;18.96;59.05
33795;BME280;51430;52.242;21.118;2023-05-24T00:16:53;99940.61;;;18.94;59.21
33795;BME280;51430;52.242;21.118;2023-05-24T00:19:20;99944.08;;;18.91;58.63
33795;BME280;51430;52.242;21.118;2023-05-24T00:21:47;99937.23;;;18.87;59.16
33795;BME280;51430;52.242;21.118;2023-05-24T00:24:14;99937.91;;;18.88;59.49
33795;BME280;51430;52.242;21.118;2023-05-24T00:26:42;99933.23;;;18.87;59.42
33795;BME280;51430;52.242;21.118;2023-05-24T00:29:09;99933.79;;;18.84;59.56
33795;BME280;51430;52.242;21.118;2023-05-24T00:31:36;99932.90;;;18.84;59.45
33795;BME280;51430;52.242;21.118;2023-05-24T00:34:02;99929.20;;;18.83;59.07
33795;BME280;51430;52.242;21.118;2023-05-24T00:36:29;99928.96;;;18.80;59.15
33795;BME280;51430;52.242;21.118;2023-05-24T00:38:56;99930.33;;;18.76;59.59
33795;BME280;51430;52.242;21.118;2023-05-24T00:41:22;99922.76;;;18.73;59.33
33795;BME280;51430;52.242;21.118;2023-05-24T00:43:48;99918.38;;;18.67;60.15
33795;BME280;51430;52.242;21.118;2023-05-24T00:46:26;99922.16;;;18.64;60.34
33795;BME280;51430;52.242;21.118;2023-05-24T00:48:54;99919.94;;;18.60;60.80
33795;BME280;51430;52.242;21.118;2023-05-24T00:51:20;99917.95;;;18.57;61.30
33795;BME280;51430;52.242;21.118;2023-05-24T00:53:48;99919.52;;;18.57;60.99
33795;BME280;51430;52.242;21.118;2023-05-24T00:56:15;99919.23;;;18.57;61.14
33795;BME280;51430;52.242;21.118;2023-05-24T00:58:43;99916.00;;;18.52;61.30
33795;BME280;51430;52.242;21.118;2023-05-24T01:01:10;99915.25;;;18.47;61.19
33795;BME280;51430;52.242;21.118;2023-05-24T01:03:37;99918.39;;;18.43;61.76
33795;BME280;51430;52.242;21.118;2023-05-24T01:06:06;99918.27;;;18.39;61.69
33795;BME280;51430;52.242;21.118;2023-05-24T01:13:47;99914.16;;;18.32;61.99
33795;BME280;51430;52.242;21.118;2023-05-24T01:16:23;99914.05;;;18.30;62.35
33795;BME280;51430;52.242;21.118;2023-05-24T01:18:56;99914.37;;;18.25;62.32
33795;BME280;51430;52.242;21.118;2023-05-24T01:22:27;99915.23;;;18.18;62.09
33795;BME280;51430;52.242;21.118;2023-05-24T01:24:55;99915.14;;;18.05;62.13
33795;BME280;51430;52.242;21.118;2023-05-24T01:27:24;99919.60;;;18.08;60.83
33795;BME280;51430;52.242;21.118;2023-05-24T01:29:53;99921.92;;;18.16;61.84
33795;BME280;51430;52.242;21.118;2023-05-24T01:32:20;99918.77;;;18.19;62.18
33795;BME280;51430;52.242;21.118;2023-05-24T01:34:46;99920.44;;;18.17;62.17
33795;BME280;51430;52.242;21.118;2023-05-24T01:37:13;99921.70;;;18.11;62.77
33795;BME280;51430;52.242;21.118;2023-05-24T01:39:39;99925.03;;;18.05;62.67
33795;BME280;51430;52.242;21.118;2023-05-24T01:42:13;99925.27;;;18.04;62.76
33795;BME280;51430;52.242;21.118;2023-05-24T01:48:10;99925.17;;;17.97;63.75
33795;BME280;51430;52.242;21.118;2023-05-24T01:50:57;99927.34;;;17.96;63.35
33795;BME280;51430;52.242;21.118;2023-05-24T01:53:31;99927.17;;;17.97;63.22
33795;BME280;51430;52.242;21.118;2023-05-24T01:56:02;99927.73;;;17.98;63.03
33795;BME280;51430;52.242;21.118;2023-05-24T01:58:31;99926.27;;;17.97;63.37
33795;BME280;51430;52.242;21.118;2023-05-24T02:00:58;99929.94;;;17.91;63.62
33795;BME280;51430;52.242;21.118;2023-05-24T02:03:26;99930.56;;;17.86;64.04
33795;BME280;51430;52.242;21.118;2023-05-24T02:05:52;99925.45;;;17.83;64.19
33795;BME280;51430;52.242;21.118;2023-05-24T02:08:19;99928.65;;;17.78;64.26
33795;BME280;51430;52.242;21.118;2023-05-24T02:10:46;99932.03;;;17.75;64.56
33795;BME280;51430;52.242;21.118;2023-05-24T02:13:12;99932.63;;;17.72;64.83
33795;BME280;51430;52.242;21.118;2023-05-24T02:15:41;99931.30;;;17.69;65.04
33795;BME280;51430;52.242;21.118;2023-05-24T02:18:08;99928.55;;;17.68;64.98
33795;BME280;51430;52.242;21.118;2023-05-24T02:20:36;99929.33;;;17.64;65.12
33795;BME280;51430;52.242;21.118;2023-05-24T02:23:03;99932.01;;;17.62;65.69
33795;BME280;51430;52.242;21.118;2023-05-24T02:25:30;99934.44;;;17.58;66.12
33795;BME280;51430;52.242;21.118;2023-05-24T02:27:58;99930.15;;;17.54;66.17
33795;BME280;51430;52.242;21.118;2023-05-24T02:30:25;99933.33;;;17.52;66.23
33795;BME280;51430;52.242;21.118;2023-05-24T02:32:52;99933.04;;;17.50;66.21
33795;BME280;51430;52.242;21.118;2023-05-24T02:35:19;99935.29;;;17.49;66.32
33795;BME280;51430;52.242;21.118;2023-05-24T02:37:45;99937.50;;;17.45;66.06
33795;BME280;51430;52.242;21.118;2023-05-24T02:40:12;99938.66;;;17.42;65.64
33795;BME280;51430;52.242;21.118;2023-05-24T02:42:38;99939.09;;;17.38;65.32
33795;BME280;51430;52.242;21.118;2023-05-24T02:45:05;99940.11;;;17.37;66.25
33795;BME280;51430;52.242;21.118;2023-05-24T02:47:32;99943.13;;;17.34;65.88
33795;BME280;51430;52.242;21.118;2023-05-24T02:49:58;99942.35;;;17.33;65.71
33795;BME280;51430;52.242;21.118;2023-05-24T02:52:25;99940.14;;;17.34;65.46
33795;BME280;51430;52.242;21.118;2023-05-24T02:54:52;99939.11;;;17.32;65.85
33795;BME280;51430;52.242;21.118;2023-05-24T02:57:18;99938.71;;;17.31;65.88
33795;BME280;51430;52.242;21.118;2023-05-24T02:59:45;99938.81;;;17.28;66.23
33795;BME280;51430;52.242;21.118;2023-05-24T03:02:11;99940.43;;;17.29;66.63
33795;BME280;51430;52.242;21.118;2023-05-24T03:04:40;99939.04;;;17.29;66.86
33795;BME280;51430;52.242;21.118;2023-05-24T03:07:07;99938.58;;;17.30;66.60
33795;BME280;51430;52.242;21.118;2023-05-24T03:09:33;99938.83;;;17.33;66.62
33795;BME280;51430;52.242;21.118;2023-05-24T03:12:00;99935.84;;;17.36;66.66
33795;BME280;51430;52.242;21.118;2023-05-24T03:14:26;99936.64;;;17.41;66.67
33795;BME280;51430;52.242;21.118;2023-05-24T03:16:53;99939.02;;;17.46;66.22
33795;BME280;51430;52.242;21.118;2023-05-24T03:19:19;99941.30;;;17.47;65.78
33795;BME280;51430;52.242;21.118;2023-05-24T03:21:46;99941.73;;;17.47;65.80
33795;BME280;51430;52.242;21.118;2023-05-24T03:24:12;99943.42;;;17.50;65.96
33795;BME280;51430;52.242;21.118;2023-05-24T03:26:39;99948.13;;;17.54;65.99
33795;BME280;51430;52.242;21.118;2023-05-24T03:29:06;99947.52;;;17.55;65.71
33795;BME280;51430;52.242;21.118;2023-05-24T03:31:33;99948.75;;;17.59;65.55
33795;BME280;51430;52.242;21.118;2023-05-24T03:33:59;99954.42;;;17.62;65.56
33795;BME280;51430;52.242;21.118;2023-05-24T03:36:26;99952.45;;;17.64;65.53
33795;BME280;51430;52.242;21.118;2023-05-24T03:38:54;99952.16;;;17.65;65.28
33795;BME280;51430;52.242;21.118;2023-05-24T03:41:23;99950.73;;;17.72;65.22
33795;BME280;51430;52.242;21.118;2023-05-24T03:43:51;99952.13;;;17.78;65.55
33795;BME280;51430;52.242;21.118;2023-05-24T03:46:17;99953.65;;;17.83;65.33
33795;BME280;51430;52.242;21.118;2023-05-24T03:48:44;99951.16;;;17.88;65.11
33795;BME280;51430;52.242;21.118;2023-05-24T03:51:11;99955.02;;;17.91;65.24
33795;BME280;51430;52.242;21.118;2023-05-24T03:53:37;99959.77;;;17.99;65.48
33795;BME280;51430;52.242;21.118;2023-05-24T03:56:04;99960.73;;;18.03;64.30
33795;BME280;51430;52.242;21.118;2023-05-24T03:58:31;99961.73;;;18.08;64.26
33795;BME280;51430;52.242;21.118;2023-05-24T04:00:58;99964.30;;;18.12;63.66
33795;BME280;51430;52.242;21.118;2023-05-24T04:03:25;99964.48;;;18.12;63.14
33795;BME280;51430;52.242;21.118;2023-05-24T04:05:52;99968.38;;;18.13;62.48
33795;BME280;51430;52.242;21.118;2023-05-24T04:08:19;99968.59;;;18.17;61.73
33795;BME280;51430;52.242;21.118;2023-05-24T04:10:45;99972.42;;;18.28;61.70
33795;BME280;51430;52.242;21.118;2023-05-24T04:13:12;99973.69;;;18.36;61.32
33795;BME280;51430;52.242;21.118;2023-05-24T04:15:38;99974.36;;;18.42;60.45
33795;BME280;51430;52.242;21.118;2023-05-24T04:18:05;99977.31;;;18.49;60.66
33795;BME280;51430;52.242;21.118;2023-05-24T04:20:32;99978.17;;;18.54;59.67
33795;BME280;51430;52.242;21.118;2023-05-24T04:22:59;99978.80;;;18.57;60.00
33795;BME280;51430;52.242;21.118;2023-05-24T04:25:26;99978.99;;;18.60;59.31
33795;BME280;51430;52.242;21.118;2023-05-24T04:27:52;99982.64;;;18.62;59.80
33795;BME280;51430;52.242;21.118;2023-05-24T04:30:19;99982.60;;;18.68;59.89
33795;BME280;51430;52.242;21.118;2023-05-24T04:32:46;99986.37;;;18.74;59.85
33795;BME280;51430;52.242;21.118;2023-05-24T04:35:13;99992.54;;;18.79;58.64
33795;BME280;51430;52.242;21.118;2023-05-24T04:37:40;99999.90;;;18.76;57.36
33795;BME280;51430;52.242;21.118;2023-05-24T04:40:07;100001.23;;;18.75;57.28
33795;BME280;51430;52.242;21.118;2023-05-24T04:42:35;100006.67;;;18.74;56.89
33795;BME280;51430;52.242;21.118;2023-05-24T04:45:05;100006.93;;;18.75;57.76
33795;BME280;51430;52.242;21.118;2023-05-24T04:47:32;100006.54;;;18.84;58.41
33795;BME280;51430;52.242;21.118;2023-05-24T04:49:59;100008.66;;;18.89;56.94
33795;BME280;51430;52.242;21.118;2023-05-24T04:58:05;100008.21;;;18.91;59.48
33795;BME280;51430;52.242;21.118;2023-05-24T05:01:46;100010.09;;;18.96;58.92
33795;BME280;51430;52.242;21.118;2023-05-24T05:05:30;100020.48;;;19.07;59.83
33795;BME280;51430;52.242;21.118;2023-05-24T05:07:58;100020.55;;;19.14;60.54
33795;BME280;51430;52.242;21.118;2023-05-24T05:10:27;100023.58;;;19.34;60.86
33795;BME280;51430;52.242;21.118;2023-05-24T05:12:54;100023.52;;;19.52;59.89
33795;BME280;51430;52.242;21.118;2023-05-24T05:15:24;100025.25;;;19.68;58.89
33795;BME280;51430;52.242;21.118;2023-05-24T05:17:53;100029.19;;;19.80;58.00
33795;BME280;51430;52.242;21.118;2023-05-24T05:23:13;100033.62;;;20.00;55.90
33795;BME280;51430;52.242;21.118;2023-05-24T05:25:41;100034.14;;;19.99;56.79
33795;BME280;51430;52.242;21.118;2023-05-24T05:28:09;100032.80;;;20.13;58.00
33795;BME280;51430;52.242;21.118;2023-05-24T05:30:37;100031.68;;;20.26;57.59
33795;BME280;51430;52.242;21.118;2023-05-24T05:33:05;100032.84;;;20.35;56.88
33795;BME280;51430;52.242;21.118;2023-05-24T05:35:33;100034.98;;;20.42;57.10
33795;BME280;51430;52.242;21.118;2023-05-24T05:38:01;100035.37;;;20.54;57.23
33795;BME280;51430;52.242;21.118;2023-05-24T05:40:29;100036.43;;;20.63;55.81
33795;BME280;51430;52.242;21.118;2023-05-24T05:42:57;100040.81;;;20.78;54.97
33795;BME280;51430;52.242;21.118;2023-05-24T05:45:25;100044.57;;;20.92;54.66
33795;BME280;51430;52.242;21.118;2023-05-24T05:47:53;100044.59;;;20.86;53.43
33795;BME280;51430;52.242;21.118;2023-05-24T05:50:21;100049.66;;;20.91;54.37
33795;BME280;51430;52.242;21.118;2023-05-24T05:52:48;100053.27;;;21.02;51.90
33795;BME280;51430;52.242;21.118;2023-05-24T05:55:16;100057.46;;;21.31;52.26
33795;BME280;51430;52.242;21.118;2023-05-24T05:57:44;100054.87;;;21.76;51.91
33795;BME280;51430;52.242;21.118;2023-05-24T06:00:12;100057.75;;;22.42;50.38
33795;BME280;51430;52.242;21.118;2023-05-24T06:02:41;100059.55;;;22.93;48.57
33795;BME280;51430;52.242;21.118;2023-05-24T06:05:09;100063.91;;;22.82;47.44
33795;BME280;51430;52.242;21.118;2023-05-24T06:07:37;100069.91;;;23.01;46.51
33795;BME280;51430;52.242;21.118;2023-05-24T06:10:05;100072.19;;;23.13;44.22
33795;BME280;51430;52.242;21.118;2023-05-24T06:18:46;100073.82;;;22.32;45.87
33795;BME280;51430;52.242;21.118;2023-05-24T06:21:32;100077.36;;;22.43;46.53
33795;BME280;51430;52.242;21.118;2023-05-24T06:24:00;100080.77;;;22.71;45.02
33795;BME280;51430;52.242;21.118;2023-05-24T06:26:29;100081.70;;;23.06;44.21
33795;BME280;51430;52.242;21.118;2023-05-24T06:28:57;100084.57;;;23.24;44.61
33795;BME280;51430;52.242;21.118;2023-05-24T06:31:25;100088.96;;;23.76;43.94
33795;BME280;51430;52.242;21.118;2023-05-24T06:33:53;100092.08;;;24.42;42.96
33795;BME280;51430;52.242;21.118;2023-05-24T06:36:31;100096.86;;;24.87;40.73
33795;BME280;51430;52.242;21.118;2023-05-24T06:39:09;100101.14;;;25.08;40.21
33795;BME280;51430;52.242;21.118;2023-05-24T06:41:38;100102.61;;;25.32;40.39
33795;BME280;51430;52.242;21.118;2023-05-24T06:44:05;100106.70;;;25.44;40.00
33795;BME280;51430;52.242;21.118;2023-05-24T06:46:33;100106.99;;;26.07;40.17
33795;BME280;51430;52.242;21.118;2023-05-24T06:49:02;100108.63;;;26.25;38.74
33795;BME280;51430;52.242;21.118;2023-05-24T06:51:30;100112.69;;;26.16;38.52
33795;BME280;51430;52.242;21.118;2023-05-24T06:54:00;100120.92;;;25.89;38.21
33795;BME280;51430;52.242;21.118;2023-05-24T06:56:31;100119.29;;;26.21;37.72
33795;BME280;51430;52.242;21.118;2023-05-24T06:58:59;100123.10;;;26.46;37.54
33795;BME280;51430;52.242;21.118;2023-05-24T07:01:29;100125.35;;;26.51;37.00
33795;BME280;51430;52.242;21.118;2023-05-24T07:03:58;100121.77;;;26.61;37.06
33795;BME280;51430;52.242;21.118;2023-05-24T07:06:26;100123.38;;;26.79;36.96
33795;BME280;51430;52.242;21.118;2023-05-24T07:08:54;100125.89;;;27.18;36.71
33795;BME280;51430;52.242;21.118;2023-05-24T07:11:22;100128.08;;;26.97;36.25
33795;BME280;51430;52.242;21.118;2023-05-24T07:13:50;100126.64;;;26.27;38.06
33795;BME280;51430;52.242;21.118;2023-05-24T07:16:18;100128.27;;;26.37;37.72
33795;BME280;51430;52.242;21.118;2023-05-24T07:18:46;100131.04;;;26.94;38.38
33795;BME280;51430;52.242;21.118;2023-05-24T07:21:14;100135.09;;;26.88;36.65
33795;BME280;51430;52.242;21.118;2023-05-24T07:23:42;100140.14;;;26.09;38.06
33795;BME280;51430;52.242;21.118;2023-05-24T07:26:10;100139.46;;;26.80;37.80
33795;BME280;51430;52.242;21.118;2023-05-24T07:28:37;100149.55;;;27.76;37.18
33795;BME280;51430;52.242;21.118;2023-05-24T07:31:10;100154.78;;;28.41;35.33
33795;BME280;51430;52.242;21.118;2023-05-24T07:33:38;100154.54;;;27.68;34.96
33795;BME280;51430;52.242;21.118;2023-05-24T07:36:06;100162.55;;;27.09;35.93
33795;BME280;51430;52.242;21.118;2023-05-24T07:38:35;100166.80;;;26.81;36.38
33795;BME280;51430;52.242;21.118;2023-05-24T07:41:06;100165.89;;;27.17;36.83
33795;BME280;51430;52.242;21.118;2023-05-24T07:43:34;100177.80;;;27.58;35.54
33795;BME280;51430;52.242;21.118;2023-05-24T07:46:04;100179.66;;;27.47;35.26
33795;BME280;51430;52.242;21.118;2023-05-24T07:48:32;100180.25;;;27.50;35.97
33795;BME280;51430;52.242;21.118;2023-05-24T07:50:59;100182.23;;;27.55;35.45
33795;BME280;51430;52.242;21.118;2023-05-24T07:53:28;100181.63;;;27.99;35.20
33795;BME280;51430;52.242;21.118;2023-05-24T07:55:56;100184.02;;;28.42;34.88
33795;BME280;51430;52.242;21.118;2023-05-24T07:58:24;100189.95;;;28.99;34.44
33795;BME280;51430;52.242;21.118;2023-05-24T08:00:52;100189.25;;;28.63;34.09
33795;BME280;51430;52.242;21.118;2023-05-24T08:03:20;100188.63;;;27.53;35.11
33795;BME280;51430;52.242;21.118;2023-05-24T08:05:48;100190.95;;;27.50;35.65
33795;BME280;51430;52.242;21.118;2023-05-24T08:08:17;100190.45;;;27.55;35.56
33795;BME280;51430;52.242;21.118;2023-05-24T08:10:45;100192.04;;;27.52;35.85
33795;BME280;51430;52.242;21.118;2023-05-24T08:13:12;100188.77;;;27.71;36.49
33795;BME280;51430;52.242;21.118;2023-05-24T08:15:42;100193.84;;;28.77;35.34
33795;BME280;51430;52.242;21.118;2023-05-24T08:18:10;100191.77;;;29.32;34.71
33795;BME280;51430;52.242;21.118;2023-05-24T08:20:38;100201.13;;;30.05;33.39
33795;BME280;51430;52.242;21.118;2023-05-24T08:23:07;100201.86;;;30.35;33.12
33795;BME280;51430;52.242;21.118;2023-05-24T08:25:36;100205.35;;;30.65;32.61
33795;BME280;51430;52.242;21.118;2023-05-24T08:28:04;100205.42;;;30.81;32.52
33795;BME280;51430;52.242;21.118;2023-05-24T08:30:32;100207.34;;;30.23;32.68
33795;BME280;51430;52.242;21.118;2023-05-24T08:33:00;100201.15;;;29.94;33.60
33795;BME280;51430;52.242;21.118;2023-05-24T08:35:28;100203.85;;;30.33;32.95
33795;BME280;51430;52.242;21.118;2023-05-24T08:37:56;100208.06;;;30.72;32.38
33795;BME280;51430;52.242;21.118;2023-05-24T08:40:24;100203.66;;;30.01;32.23
33795;BME280;51430;52.242;21.118;2023-05-24T08:42:52;100210.25;;;30.72;32.63
33795;BME280;51430;52.242;21.118;2023-05-24T08:45:25;100212.63;;;31.20;31.40
33795;BME280;51430;52.242;21.118;2023-05-24T08:47:54;100217.40;;;30.81;31.40
33795;BME280;51430;52.242;21.118;2023-05-24T08:50:22;100214.20;;;30.79;32.13
33795;BME280;51430;52.242;21.118;2023-05-24T08:52:51;100220.54;;;30.62;31.63
33795;BME280;51430;52.242;21.118;2023-05-24T08:55:21;100220.69;;;29.97;32.14
33795;BME280;51430;52.242;21.118;2023-05-24T08:57:48;100220.31;;;29.42;32.88
33795;BME280;51430;52.242;21.118;2023-05-24T09:00:17;100221.11;;;29.56;32.72
33795;BME280;51430;52.242;21.118;2023-05-24T09:02:46;100216.61;;;29.38;33.26
33795;BME280;51430;52.242;21.118;2023-05-24T09:05:15;100215.50;;;28.71;34.26
33795;BME280;51430;52.242;21.118;2023-05-24T09:07:49;100217.83;;;28.40;34.95
33795;BME280;51430;52.242;21.118;2023-05-24T09:10:19;100218.51;;;29.28;34.21
33795;BME280;51430;52.242;21.118;2023-05-24T09:12:54;100224.93;;;30.06;32.66
33795;BME280;51430;52.242;21.118;2023-05-24T09:15:22;100225.00;;;30.07;32.85
33795;BME280;51430;52.242;21.118;2023-05-24T09:17:50;100225.59;;;29.78;32.76
33795;BME280;51430;52.242;21.118;2023-05-24T09:20:20;100225.73;;;29.83;32.78
33795;BME280;51430;52.242;21.118;2023-05-24T09:22:51;100226.46;;;30.31;32.77
33795;BME280;51430;52.242;21.118;2023-05-24T09:25:24;100235.86;;;30.74;32.40
33795;BME280;51430;52.242;21.118;2023-05-24T09:27:54;100233.52;;;29.77;33.28
33795;BME280;51430;52.242;21.118;2023-05-24T09:30:22;100230.03;;;28.78;34.67
33795;BME280;51430;52.242;21.118;2023-05-24T09:32:58;100231.55;;;28.08;35.59
33795;BME280;51430;52.242;21.118;2023-05-24T09:35:28;100231.52;;;27.52;36.77
33795;BME280;51430;52.242;21.118;2023-05-24T09:38:00;100233.34;;;27.43;37.26
33795;BME280;51430;52.242;21.118;2023-05-24T09:48:02;100240.27;;;29.57;34.46
33795;BME280;51430;52.242;21.118;2023-05-24T09:50:30;100239.95;;;30.68;33.51
33795;BME280;51430;52.242;21.118;2023-05-24T09:52:58;100237.25;;;32.12;30.94
33795;BME280;51430;52.242;21.118;2023-05-24T09:55:26;100244.33;;;34.03;29.72
33795;BME280;51430;52.242;21.118;2023-05-24T09:58:03;100248.55;;;34.97;27.67
33795;BME280;51430;52.242;21.118;2023-05-24T10:00:36;100252.67;;;35.48;26.98
33795;BME280;51430;52.242;21.118;2023-05-24T10:03:09;100244.69;;;35.79;26.90
33795;BME280;51430;52.242;21.118;2023-05-24T10:05:41;100244.27;;;36.46;26.24
33795;BME280;51430;52.242;21.118;2023-05-24T10:08:11;100252.51;;;37.46;25.14
33795;BME280;51430;52.242;21.118;2023-05-24T10:10:41;100254.88;;;37.72;23.72
33795;BME280;51430;52.242;21.118;2023-05-24T10:13:10;100250.25;;;36.95;23.77
33795;BME280;51430;52.242;21.118;2023-05-24T10:15:39;100244.39;;;36.32;24.62
33795;BME280;51430;52.242;21.118;2023-05-24T10:18:07;100252.52;;;35.56;25.03
33795;BME280;51430;52.242;21.118;2023-05-24T10:20:40;100253.32;;;33.20;28.22
33795;BME280;51430;52.242;21.118;2023-05-24T10:23:10;100243.95;;;32.13;30.20
33795;BME280;51430;52.242;21.118;2023-05-24T10:25:48;100243.50;;;31.43;31.48
33795;BME280;51430;52.242;21.118;2023-05-24T10:28:19;100246.06;;;31.06;32.63
33795;BME280;51430;52.242;21.118;2023-05-24T10:31:00;100247.20;;;31.14;32.24
33795;BME280;51430;52.242;21.118;2023-05-24T10:33:35;100240.52;;;30.02;32.93
33795;BME280;51430;52.242;21.118;2023-05-24T10:36:09;100242.15;;;30.32;33.46
33795;BME280;51430;52.242;21.118;2023-05-24T10:38:39;100244.45;;;30.34;32.76
33795;BME280;51430;52.242;21.118;2023-05-24T10:41:07;100242.91;;;30.17;30.95
33795;BME280;51430;52.242;21.118;2023-05-24T10:43:36;100242.27;;;29.59;32.38
33795;BME280;51430;52.242;21.118;2023-05-24T10:46:08;100242.39;;;29.54;31.18
33795;BME280;51430;52.242;21.118;2023-05-24T10:48:39;100241.23;;;29.05;31.14
33795;BME280;51430;52.242;21.118;2023-05-24T10:51:36;100243.05;;;28.98;31.63
33795;BME280;51430;52.242;21.118;2023-05-24T10:54:11;100245.38;;;30.69;30.09
33795;BME280;51430;52.242;21.118;2023-05-24T10:56:45;100253.58;;;33.20;29.03
33795;BME280;51430;52.242;21.118;2023-05-24T10:59:36;100259.27;;;34.19;26.67
33795;BME280;51430;52.242;21.118;2023-05-24T11:02:08;100265.30;;;34.08;25.78
33795;BME280;51430;52.242;21.118;2023-05-24T11:04:41;100262.78;;;34.49;26.52
33795;BME280;51430;52.242;21.118;2023-05-24T11:07:12;100264.01;;;34.82;26.68
33795;BME280;51430;52.242;21.118;2023-05-24T11:09:41;100270.36;;;35.18;26.43
33795;BME280;51430;52.242;21.118;2023-05-24T11:12:17;100273.91;;;35.30;26.46
33795;BME280;51430;52.242;21.118;2023-05-24T11:14:49;100271.66;;;34.95;26.00
33795;BME280;51430;52.242;21.118;2023-05-24T11:17:19;100265.74;;;33.46;27.80
33795;BME280;51430;52.242;21.118;2023-05-24T11:19:51;100264.77;;;33.47;27.55
33795;BME280;51430;52.242;21.118;2023-05-24T11:22:23;100267.80;;;33.45;27.90
33795;BME280;51430;52.242;21.118;2023-05-24T11:24:52;100270.36;;;32.51;28.41
33795;BME280;51430;52.242;21.118;2023-05-24T11:27:21;100268.98;;;33.53;28.06
33795;BME280;51430;52.242;21.118;2023-05-24T11:29:51;100275.61;;;35.21;26.98
33795;BME280;51430;52.242;21.118;2023-05-24T11:32:20;100272.80;;;36.94;25.77
33795;BME280;51430;52.242;21.118;2023-05-24T11:34:48;100278.49;;;38.33;24.99
33795;BME280;51430;52.242;21.118;2023-05-24T11:37:18;100279.23;;;38.38;23.22
33795;BME280;51430;52.242;21.118;2023-05-24T11:39:55;100272.73;;;37.23;24.42
33795;BME280;51430;52.242;21.118;2023-05-24T11:42:23;100272.19;;;35.08;26.93
33795;BME280;51430;52.242;21.118;2023-05-24T11:44:54;100270.21;;;34.91;28.72
33795;BME280;51430;52.242;21.118;2023-05-24T11:47:22;100255.79;;;35.86;27.57
33795;BME280;51430;52.242;21.118;2023-05-24T11:49:50;100264.21;;;34.35;28.87
33795;BME280;51430;52.242;21.118;2023-05-24T11:52:19;100274.28;;;33.99;29.56
33795;BME280;51430;52.242;21.118;2023-05-24T11:54:48;100275.93;;;34.30;29.77
33795;BME280;51430;52.242;21.118;2023-05-24T11:57:18;100275.89;;;35.05;28.01
33795;BME280;51430;52.242;21.118;2023-05-24T11:59:50;100272.05;;;34.77;28.27
33795;BME280;51430;52.242;21.118;2023-05-24T12:02:23;100271.84;;;34.89;28.38
33795;BME280;51430;52.242;21.118;2023-05-24T12:04:51;100279.18;;;36.36;27.57
33795;BME280;51430;52.242;21.118;2023-05-24T12:07:22;100280.94;;;36.88;26.25
33795;BME280;51430;52.242;21.118;2023-05-24T12:09:50;100282.46;;;36.49;26.61
33795;BME280;51430;52.242;21.118;2023-05-24T12:12:20;100281.64;;;36.15;26.95
33795;BME280;51430;52.242;21.118;2023-05-24T12:15:00;100283.56;;;36.74;27.36
33795;BME280;51430;52.242;21.118;2023-05-24T12:17:28;100292.89;;;37.88;25.64
33795;BME280;51430;52.242;21.118;2023-05-24T12:19:57;100289.42;;;38.04;25.77
33795;BME280;51430;52.242;21.118;2023-05-24T12:22:27;100299.23;;;38.05;25.34
33795;BME280;51430;52.242;21.118;2023-05-24T12:24:57;100293.54;;;37.04;25.96
33795;BME280;51430;52.242;21.118;2023-05-24T12:27:29;100291.37;;;37.42;26.00
33795;BME280;51430;52.242;21.118;2023-05-24T12:30:05;100291.02;;;38.14;24.87
33795;BME280;51430;52.242;21.118;2023-05-24T12:32:35;100294.54;;;38.45;24.67
33795;BME280;51430;52.242;21.118;2023-05-24T12:35:03;100299.73;;;39.01;23.93
33795;BME280;51430;52.242;21.118;2023-05-24T12:37:32;100298.56;;;39.21;23.54
33795;BME280;51430;52.242;21.118;2023-05-24T12:40:01;100300.59;;;39.51;23.77
33795;BME280;51430;52.242;21.118;2023-05-24T12:42:32;100294.07;;;39.94;23.61
33795;BME280;51430;52.242;21.118;2023-05-24T12:45:01;100294.46;;;40.62;23.26
33795;BME280;51430;52.242;21.118;2023-05-24T12:47:29;100297.44;;;41.46;22.94
33795;BME280;51430;52.242;21.118;2023-05-24T12:49:57;100300.01;;;41.41;22.37
33795;BME280;51430;52.242;21.118;2023-05-24T12:52:25;100295.26;;;40.90;22.59
33795;BME280;51430;52.242;21.118;2023-05-24T12:54:53;100295.67;;;39.39;23.42
33795;BME280;51430;52.242;21.118;2023-05-24T12:57:24;100290.77;;;39.24;23.95
33795;BME280;51430;52.242;21.118;2023-05-24T12:59:52;100285.09;;;39.31;23.83
33795;BME280;51430;52.242;21.118;2023-05-24T13:11:21;100274.09;;;34.49;29.87
33795;BME280;51430;52.242;21.118;2023-05-24T13:13:51;100277.88;;;32.94;31.79
33795;BME280;51430;52.242;21.118;2023-05-24T13:16:19;100279.98;;;31.89;33.60
33795;BME280;51430;52.242;21.118;2023-05-24T13:18:49;100280.55;;;30.43;34.69
33795;BME280;51430;52.242;21.118;2023-05-24T13:21:17;100276.49;;;29.35;34.98
33795;BME280;51430;52.242;21.118;2023-05-24T13:23:48;100271.89;;;29.10;35.07
33795;BME280;51430;52.242;21.118;2023-05-24T13:26:16;100273.17;;;29.05;34.87
33795;BME280;51430;52.242;21.118;2023-05-24T13:28:44;100272.95;;;28.67;35.07
33795;BME280;51430;52.242;21.118;2023-05-24T13:31:32;100271.30;;;28.40;35.22
33795;BME280;51430;52.242;21.118;2023-05-24T13:34:00;100274.63;;;28.31;34.24
33795;BME280;51430;52.242;21.118;2023-05-24T13:36:28;100271.48;;;28.22;33.35